CDS2 weather

Disley Airport
Disley, Saskatchewan, Canada

Public forecast

Using degrees Celsius for public forecast. Weather courtesy of forecast.io.

METAR (pilot weather report)

Closest report is Regina International Airport, 18.8 nm (34.7 km) SE. Retrieved 2019/04/23 00:00 UTC (5 minutes ago):

CYQR 230000Z 20017G24KT 15SM FEW100 FEW250 18/M09 A3006 RMK CU1CI1 CU TR SLP197 DENSITY ALT 2600FT

TAF (pilot weather forecast)

Forecast is more than 12 hours old.

Closest forecast is Regina International Airport, 18.8 nm (34.7 km) SE. Retrieved 2019/04/22 00:45 UTC (23 hours ago):

TAF CYQR 222343Z 2300/2324 19015G25KT P6SM FEW110 SCT270 FM230300 18020KT P6SM SCT150 BKN250 FM230900 19020KT P6SM BKN100 BECMG 2311/2313 20012KT FM231300 29012KT P6SM SCT090 BECMG 2315/2317 33015KT RMK NXT FCST BY 230600Z